Data for 10/22/2015

Time Sea-Level Adjusted Pressure Absolute Pressure Temperature Relative Humidity Dew Point   
(mb) (inHg) (mb) (inHg) (C) (F) (%) (C) (F)
00:05 1020 30.12 850 25.1 5.2 41.3 76 1.3 34.3
00:10 1020 30.12 849 25.07 5.2 41.3 76 1.3 34.4
00:15 1020 30.12 849 25.07 4.8 40.7 78 1.3 34.3
00:20 1020 30.12 849 25.07 4.9 40.9 76 1.1 34
00:25 1020 30.12 849 25.07 5.2 41.3 76 1.2 34.2
00:30 1020 30.12 849 25.07 5.2 41.3 76 1.3 34.3
00:35 1020 30.12 849 25.07 5 40.9 77 1.2 34.1
00:40 1020 30.12 849 25.07 5 41 76 1.2 34.1
00:45 1020 30.12 849 25.07 4.9 40.9 77 1.2 34.2
00:50 1020 30.12 849 25.07 4.8 40.6 76 0.9 33.7
00:55 1020 30.12 849 25.07 4.7 40.5 76 0.9 33.7
01:00 1020 30.12 849 25.07 4.6 40.2 78 1 33.8
01:05 1020 30.12 849 25.07 4.8 40.6 76 0.9 33.7
01:10 1020 30.12 849 25.07 5 40.9 75 0.9 33.6
01:15 1020 30.12 849 25.07 4.7 40.5 76 0.9 33.6
01:20 1020 30.12 849 25.07 4.3 39.8 79 1 33.8
01:25 1020 30.12 849 25.07 3.9 39 80 0.8 33.4
01:30 1020 30.12 849 25.07 3.7 38.7 80 0.6 33.1
01:35 1020 30.12 849 25.07 3.8 38.8 80 0.6 33.1
01:40 1020 30.12 849 25.07 4 39.1 80 0.9 33.6
01:45 1020 30.12 849 25.07 3.7 38.6 80 0.6 33
01:50 1020 30.12 849 25.07 3.5 38.2 82 0.6 33.1
01:55 1020 30.12 849 25.07 3.5 38.2 82 0.6 33.2
02:00 1020 30.12 849 25.07 3.6 38.4 80 0.4 32.7
02:05 1020 30.12 849 25.07 3.8 38.8 79 0.5 32.8
02:10 1020 30.12 849 25.07 4 39.1 79 0.6 33
02:15 1020 30.12 849 25.07 4.3 39.7 78 0.7 33.3
02:20 1020 30.12 849 25.07 4.2 39.5 78 0.7 33.3
02:25 1020 30.12 849 25.07 4.2 39.5 79 0.8 33.4
02:30 1020 30.12 849 25.07 4.1 39.5 78 0.6 33.1
02:35 1020 30.12 849 25.07 3.9 39.1 78 0.5 32.9
02:40 1020 30.12 849 25.07 3.9 38.9 78 0.4 32.8
02:45 1020 30.12 849 25.07 3.9 39 78 0.5 32.9
02:50 1020 30.12 849 25.07 3.9 39.1 78 0.5 32.8
02:55 1020 30.12 849 25.07 4.2 39.6 76 0.5 32.9
03:00 1020 30.12 849 25.07 4.3 39.7 77 0.6 33.1
03:05 1020 30.12 849 25.07 4.1 39.4 78 0.6 33.1
03:10 1020 30.12 849 25.07 4.3 39.7 76 0.4 32.8
03:15 1020 30.12 849 25.07 4.1 39.3 78 0.5 32.9
03:20 1020 30.12 849 25.07 3.6 38.4 80 0.4 32.8
03:25 1020 30.12 849 25.07 3.4 38.1 80 0.4 32.7
03:30 1020 30.12 849 25.07 3.9 38.9 78 0.3 32.6
03:35 1020 30.12 849 25.07 4.2 39.6 78 0.7 33.2
03:40 1020 30.12 849 25.07 4.4 40 76 0.5 33
03:45 1020 30.12 849 25.07 4.4 39.9 75 0.4 32.8
03:50 1020 30.12 849 25.07 4.4 40 75 0.5 32.8
03:55 1020 30.12 849 25.07 4.4 39.9 76 0.5 32.9
04:00 1020 30.12 849 25.07 4.3 39.8 76 0.5 32.9
04:05 1020 30.12 849 25.07 4.1 39.3 77 0.5 32.8
04:10 1020 30.12 849 25.07 3.7 38.7 79 0.4 32.7
04:15 1020 30.12 849 25.07 3.5 38.3 79 0.2 32.4
04:20 1020 30.12 849 25.07 3.3 38 80 0.2 32.4
04:25 1020 30.12 849 25.07 3.3 37.9 81 0.3 32.5
04:30 1020 30.12 849 25.07 3.3 37.9 81 0.3 32.5
04:35 1020 30.12 849 25.07 3.5 38.3 81 0.5 32.9
04:40 1020 30.12 849 25.07 3.6 38.4 81 0.5 32.9
04:45 1020 30.12 849 25.07 3.6 38.4 81 0.5 33
04:50 1020 30.12 849 25.07 3.5 38.4 80 0.4 32.6
04:55 1020 30.12 849 25.07 3.4 38.1 80 0.3 32.5
05:00 1020 30.12 849 25.07 3.7 38.7 79 0.3 32.6
05:05 1020 30.12 849 25.07 4.2 39.6 77 0.5 32.9
05:10 1020 30.12 849 25.07 4.2 39.6 77 0.5 32.9
05:15 1020 30.12 849 25.07 4.2 39.6 76 0.4 32.7
05:20 1020 30.12 849 25.07 4 39.2 77 0.3 32.6
05:25 1020 30.12 849 25.07 3.9 39 77 0.3 32.6
05:30 1020 30.12 849 25.07 3.8 38.9 77 0.2 32.3
05:35 1020 30.12 849 25.07 3.8 38.9 77 0.2 32.3
05:40 1020 30.12 849 25.07 3.6 38.6 78 0.2 32.3
05:45 1020 30.12 849 25.07 3.5 38.4 78 0 32
05:50 1020 30.12 849 25.07 3.9 39.1 77 0.2 32.3
05:55 1020 30.12 849 25.07 4.1 39.4 76 0.3 32.6
06:00 1020 30.12 849 25.07 4.1 39.4 75 0.2 32.3
06:05 1020 30.12 849 25.07 4.1 39.4 77 0.4 32.7
06:10 1020 30.12 849 25.07 4.1 39.3 76 0.3 32.5
06:15 1020 30.12 849 25.07 3.7 38.7 78 0.2 32.4
06:20 1020 30.12 849 25.07 3.2 37.8 79 -0.1 31.9
06:25 1020 30.12 849 25.07 3.4 38.1 78 -0 32
06:30 1020 30.12 849 25.07 3.3 38 78 -0.1 31.9
06:35 1020 30.12 849 25.07 3.3 37.9 78 -0.1 31.8
06:40 1020 30.12 849 25.07 3.3 37.9 79 -0.1 31.9
06:45 1020 30.12 849 25.07 3.4 38.2 78 -0.1 31.9
06:50 1020 30.12 849 25.07 3.6 38.5 78 0.1 32.1
06:55 1020 30.12 849 25.07 3.7 38.7 75 -0.3 31.5
07:00 1020 30.12 849 25.07 3.7 38.7 75 -0.2 31.6
07:05 1020 30.12 849 25.07 3.4 38.2 77 -0.2 31.6
07:10 1020 30.12 849 25.07 3 37.4 78 -0.4 31.3
07:15 1020 30.12 849 25.07 2.9 37.3 79 -0.4 31.3
07:20 1020 30.12 849 25.07 3.5 38.3 76 -0.3 31.4
07:25 1020 30.12 850 25.1 3.8 38.8 76 -0.1 31.7
07:30 1020 30.12 850 25.1 3.7 38.6 76 -0.2 31.6
07:35 1020 30.12 850 25.1 4 39.2 74 -0.2 31.6
07:40 1020 30.12 850 25.1 4.1 39.4 73 -0.2 31.6
07:45 1020 30.12 850 25.1 4 39.2 74 -0.2 31.6
07:50 1020 30.12 850 25.1 4 39.2 74 -0.2 31.6
07:55 1020 30.12 850 25.1 4.1 39.5 74 -0.1 31.8
08:00 1021 30.15 850 25.1 4.3 39.7 73 -0.1 31.9
08:05 1021 30.15 850 25.1 4.7 40.4 72 0.1 32.1
08:10 1021 30.15 850 25.1 5.1 41.2 70 0.2 32.3
08:15 1021 30.15 850 25.1 5.3 41.5 70 0.2 32.4
08:20 1021 30.15 850 25.1 5.6 42 68 0.1 32.1
08:25 1021 30.15 850 25.1 5.7 42.3 68 0.3 32.6
08:30 1020 30.12 850 25.1 6.1 43 68 0.7 33.2
08:35 1020 30.12 850 25.1 6.9 44.4 65 0.8 33.4
08:40 1020 30.12 850 25.1 7.1 44.8 65 1.1 33.9
08:45 1020 30.12 850 25.1 7.2 45 64 1 33.7
08:50 1020 30.12 850 25.1 7.5 45.4 64 1.2 34.2
08:55 1020 30.12 850 25.1 7.4 45.3 65 1.2 34.1
09:00 1020 30.12 850 25.1 7.6 45.8 63 1.1 34
09:05 1021 30.15 850 25.1 7.6 45.6 66 1.5 34.8
09:10 1021 30.15 850 25.1 7.8 46 63 1.3 34.4
09:15 1020 30.12 850 25.1 8 46.3 63 1.4 34.4
09:20 1020 30.12 850 25.1 8.6 47.6 60 1.3 34.3
09:25 1020 30.12 850 25.1 9 48.2 60 1.7 35.1
09:30 1020 30.12 850 25.1 9.2 48.5 61 2.1 35.8
09:35 1020 30.12 850 25.1 9.2 48.5 60 1.9 35.4
09:40 1020 30.12 849 25.07 9.1 48.4 60 1.7 35
09:45 1020 30.12 849 25.07 9.3 48.7 58 1.6 34.9
09:50 1020 30.12 849 25.07 9.4 48.9 57 1.4 34.5
09:55 1020 30.12 849 25.07 9.8 49.6 58 1.9 35.5
10:00 1020 30.12 849 25.07 10.6 51.1 54 1.8 35.2
10:05 1020 30.12 849 25.07 11.1 52.1 55 2.4 36.3
10:10 1020 30.12 849 25.07 10.6 51.1 54 1.6 34.9
10:15 1020 30.12 849 25.07 11.4 52.5 53 2.3 36.2
10:20 1020 30.12 849 25.07 11.7 53 52 2.3 36.2
10:25 1020 30.12 849 25.07 10.8 51.5 55 2.2 35.9
10:30 1020 30.12 849 25.07 10.9 51.7 56 2.5 36.5
10:35 1020 30.12 849 25.07 10.2 50.4 57 2.1 35.8
10:40 1020 30.12 849 25.07 10.7 51.2 54 1.8 35.2
10:45 1020 30.12 849 25.07 10.6 51 57 2.4 36.3
10:50 1020 30.12 849 25.07 10.3 50.5 55 1.7 35.1
10:55 1020 30.12 849 25.07 11.3 52.3 54 2.4 36.3
11:00 1020 30.12 849 25.07 12 53.6 54 3 37.3
11:05 1020 30.12 849 25.07 11.9 53.5 52 2.4 36.3
11:10 1020 30.12 849 25.07 11.1 52 54 2.2 36
11:15 1020 30.12 849 25.07 11.7 53 51 1.9 35.4
11:20 1020 30.12 849 25.07 11.5 52.7 53 2.3 36.2
11:25 1020 30.12 849 25.07 12 53.6 49 1.8 35.3
11:30 1020 30.12 849 25.07 12.6 54.7 48 2.1 35.7
11:35 1019 30.09 849 25.07 13.1 55.6 48 2.4 36.4
11:40 1019 30.09 849 25.07 13.1 55.5 47 2.2 35.9
11:45 1019 30.09 849 25.07 13.3 56 47 2.3 36.1
11:50 1019 30.09 849 25.07 13.5 56.4 48 2.8 37
11:55 1019 30.09 849 25.07 13.3 56 48 2.6 36.6
12:00 1019 30.09 849 25.07 13.9 57 45 2.2 35.9
12:05 1019 30.09 848 25.04 14.6 58.3 43 2.1 35.8
12:10 1019 30.09 848 25.04 14.4 57.9 44 2.4 36.4
12:15 1019 30.09 848 25.04 14.1 57.4 45 2.3 36.1
12:20 1019 30.09 848 25.04 14.1 57.4 45 2.5 36.5
12:25 1019 30.09 848 25.04 14.2 57.6 46 2.7 36.9
12:30 1019 30.09 848 25.04 14.2 57.5 44 2.2 35.9
12:35 1019 30.09 848 25.04 14.3 57.8 42 1.8 35.2
12:40 1019 30.09 848 25.04 14.5 58.2 43 2.3 36.1
12:45 1019 30.09 848 25.04 14.5 58.2 43 2.1 35.8
12:50 1019 30.09 848 25.04 14.2 57.5 43 1.8 35.3
12:55 1019 30.09 848 25.04 14.5 58.1 42 1.7 35.1
13:00 1019 30.09 848 25.04 14.6 58.4 44 2.7 36.8
13:05 1019 30.09 848 25.04 14.7 58.5 42 2.1 35.7
13:10 1019 30.09 848 25.04 15 59 39 1.4 34.5
13:15 1019 30.09 848 25.04 15.4 59.8 38 1.4 34.5
13:20 1019 30.09 848 25.04 15.9 60.6 35 0.5 32.9
13:25 1019 30.09 848 25.04 15.5 59.9 38 1.5 34.6
13:30 1018 30.06 848 25.04 15.9 60.7 38 1.6 34.8
13:35 1018 30.06 848 25.04 15.4 59.6 39 1.6 34.9
13:40 1018 30.06 848 25.04 15.2 59.3 38 1.1 34.1
13:45 1018 30.06 848 25.04 15.2 59.4 38 1 33.9
13:50 1018 30.06 848 25.04 14.9 58.8 38 0.7 33.3
13:55 1018 30.06 847 25.01 14.8 58.6 38 0.8 33.5
14:00 1018 30.06 847 25.01 15.1 59.1 38 1.1 34
14:05 1018 30.06 847 25.01 15.4 59.7 37 0.8 33.5
14:10 1018 30.06 847 25.01 15.3 59.6 31 -1.4 29.5
14:15 1018 30.06 847 25.01 15.2 59.4 33 -0.7 30.7
14:20 1018 30.06 847 25.01 15.3 59.6 34 -0.5 31.1
14:25 1018 30.06 847 25.01 15.7 60.3 30 -1.8 28.7
14:30 1018 30.06 847 25.01 15.9 60.6 29 -1.9 28.6
14:35 1018 30.06 847 25.01 16.1 60.9 30 -1.3 29.6
14:40 1018 30.06 847 25.01 15.7 60.2 31 -1.1 30
14:45 1018 30.06 847 25.01 15.6 60.2 31 -1.4 29.5
14:50 1018 30.06 847 25.01 15.7 60.3 30 -1.6 29.1
14:55 1018 30.06 847 25.01 15.5 60 32 -1.1 30
15:00 1018 30.06 847 25.01 15.5 60 30 -1.7 28.9
15:05 1018 30.06 847 25.01 15.5 59.9 31 -1.4 29.6
15:10 1018 30.06 847 25.01 15.4 59.7 31 -1.4 29.4
15:15 1018 30.06 847 25.01 15.8 60.4 30 -1.6 29.1
15:20 1018 30.06 847 25.01 15.7 60.2 30 -1.7 28.9
15:25 1018 30.06 848 25.04 15.4 59.8 30 -1.8 28.7
15:30 1018 30.06 848 25.04 15.5 59.8 30 -2 28.5
15:35 1018 30.06 848 25.04 15.3 59.6 31 -1.8 28.7
15:40 1018 30.06 848 25.04 15.3 59.6 30 -2 28.3
15:45 1018 30.06 848 25.04 15.3 59.6 31 -1.8 28.8
15:50 1018 30.06 848 25.04 15.2 59.3 31 -1.6 29.1
15:55 1018 30.06 848 25.04 15.2 59.3 32 -1.5 29.4
16:00 1018 30.06 848 25.04 15.1 59.1 33 -1.2 29.9
16:05 1018 30.06 848 25.04 14.3 57.8 34 -1.4 29.4
16:10 1018 30.06 848 25.04 14.4 57.8 33 -1.7 29
16:15 1018 30.06 848 25.04 14.2 57.6 33 -1.7 28.9
16:20 1019 30.09 848 25.04 14.4 57.9 32 -1.8 28.7
16:25 1019 30.09 848 25.04 14.3 57.8 33 -1.6 29.1
16:30 1019 30.09 848 25.04 13.8 56.8 35 -1.5 29.3
16:35 1019 30.09 848 25.04 14.2 57.6 33 -1.8 28.8
16:40 1019 30.09 848 25.04 14.4 57.8 34 -1.3 29.6
16:45 1019 30.09 848 25.04 13.9 57 35 -1.3 29.6
16:50 1019 30.09 848 25.04 13.4 56.1 35 -1.6 29.1
16:55 1019 30.09 848 25.04 13.3 56 36 -1.5 29.4
17:00 1019 30.09 848 25.04 13.1 55.7 37 -1.1 30.1
17:05 1019 30.09 848 25.04 12.9 55.2 38 -0.9 30.4
17:10 1019 30.09 848 25.04 12.7 54.8 40 -0.5 31.1
17:15 1019 30.09 848 25.04 12.5 54.5 40 -0.6 30.9
17:20 1019 30.09 848 25.04 12.5 54.5 40 -0.6 30.8
17:25 1019 30.09 848 25.04 12.2 54 45 0.6 33.1
17:30 1019 30.09 848 25.04 11.2 52.1 51 1.3 34.4
17:35 1019 30.09 848 25.04 10.4 50.8 52 1.1 33.9
17:40 1019 30.09 848 25.04 10 50 53 0.8 33.4
17:45 1019 30.09 848 25.04 9.7 49.5 54 0.9 33.5
17:50 1019 30.09 848 25.04 9.4 48.9 55 0.9 33.6
17:55 1019 30.09 848 25.04 9.1 48.4 56 0.8 33.4
18:00 1019 30.09 848 25.04 8.9 48 56 0.7 33.3
18:05 1019 30.09 848 25.04 8.8 47.8 57 0.9 33.6
18:10 1019 30.09 848 25.04 8.5 47.3 58 0.7 33.3
18:15 1019 30.09 848 25.04 8.4 47.1 58 0.6 33
18:20 1019 30.09 848 25.04 8.3 47 57 0.4 32.8
18:25 1019 30.09 848 25.04 8.5 47.3 57 0.5 32.8
18:30 1019 30.09 848 25.04 8.2 46.8 59 0.6 33.1
18:35 1019 30.09 848 25.04 7.7 45.9 60 0.5 33
18:40 1019 30.09 848 25.04 7.6 45.6 60 0.3 32.5
18:45 1019 30.09 848 25.04 7.7 45.8 60 0.4 32.7
18:50 1019 30.09 849 25.07 7.7 45.9 60 0.5 32.9
18:55 1019 30.09 849 25.07 7.6 45.7 60 0.4 32.7
19:00 1019 30.09 849 25.07 7.5 45.5 61 0.5 32.9
19:05 1020 30.12 849 25.07 7.4 45.3 61 0.5 32.8
19:10 1020 30.12 849 25.07 7.3 45.1 61 0.4 32.7
19:15 1020 30.12 849 25.07 7.2 44.9 61 0.2 32.4
19:20 1020 30.12 849 25.07 7.4 45.2 61 0.3 32.6
19:25 1020 30.12 849 25.07 7.3 45.1 61 0.3 32.5
19:30 1020 30.12 849 25.07 6.8 44.3 63 0.3 32.6
19:35 1020 30.12 849 25.07 6.6 43.9 63 0.2 32.3
19:40 1020 30.12 849 25.07 6.8 44.2 62 0.1 32.1
19:45 1020 30.12 849 25.07 6.5 43.7 64 0.2 32.4
19:50 1020 30.12 849 25.07 6.1 43 66 0.1 32.3
19:55 1020 30.12 849 25.07 5.8 42.4 67 0.2 32.3
20:00 1020 30.12 849 25.07 5.8 42.5 66 -0.1 31.8
20:05 1020 30.12 849 25.07 6.2 43.1 64 -0.1 31.8
20:10 1020 30.12 849 25.07 6.5 43.7 62 -0.2 31.6
20:15 1020 30.12 849 25.07 6.9 44.4 60 -0.4 31.3
20:20 1020 30.12 849 25.07 7 44.6 60 -0.2 31.7
20:25 1020 30.12 849 25.07 6.9 44.5 61 0.1 32.1
20:30 1020 30.12 849 25.07 7 44.6 61 -0 31.9
20:35 1020 30.12 849 25.07 7 44.6 62 0.3 32.5
20:40 1020 30.12 849 25.07 6.8 44.2 63 0.2 32.4
20:45 1020 30.12 849 25.07 6.9 44.5 62 0.3 32.5
20:50 1020 30.12 849 25.07 7.1 44.7 63 0.5 32.8
20:55 1020 30.12 849 25.07 7 44.7 62 0.2 32.3
21:00 1020 30.12 850 25.1 7.1 44.8 62 0.3 32.6
21:05 1020 30.12 850 25.1 6.8 44.3 64 0.4 32.8
21:10 1021 30.15 850 25.1 6.7 44.1 63 0.3 32.6
21:15 1021 30.15 850 25.1 6.8 44.2 63 0.2 32.3
21:20 1021 30.15 850 25.1 6.8 44.2 63 0.3 32.5
21:25 1021 30.15 850 25.1 6.7 44.1 64 0.3 32.5
21:30 1021 30.15 850 25.1 6.8 44.2 63 0.3 32.5
21:35 1021 30.15 850 25.1 7 44.6 61 0.1 32.2
21:40 1021 30.15 850 25.1 7.3 45.1 61 0.2 32.4
21:45 1021 30.15 850 25.1 7.4 45.3 61 0.3 32.6
21:50 1021 30.15 850 25.1 7.3 45.1 61 0.3 32.6
21:55 1021 30.15 850 25.1 7.4 45.3 61 0.3 32.6
22:00 1021 30.15 850 25.1 7.6 45.7 61 0.5 32.9
22:05 1021 30.15 850 25.1 7.7 45.8 60 0.4 32.7
22:10 1021 30.15 850 25.1 7.8 46 59 0.3 32.6
22:15 1021 30.15 850 25.1 7.8 46 59 0.3 32.5
22:20 1021 30.15 850 25.1 7.7 45.9 59 0.3 32.5
22:25 1021 30.15 850 25.1 7.5 45.5 61 0.5 33
22:30 1021 30.15 850 25.1 7.1 44.7 63 0.5 32.9
22:35 1021 30.15 850 25.1 7 44.5 61 -0 32
22:40 1021 30.15 850 25.1 7.2 44.9 61 0.2 32.3
22:45 1021 30.15 850 25.1 7.1 44.7 61 0.2 32.3
22:50 1021 30.15 850 25.1 7 44.6 61 0.1 32.2
22:55 1021 30.15 850 25.1 7 44.5 62 0.1 32.2
23:00 1021 30.15 850 25.1 6.9 44.3 62 0.1 32.2
23:05 1021 30.15 850 25.1 6.8 44.3 61 -0.1 31.8
23:10 1021 30.15 850 25.1 6.9 44.5 61 0 32
23:15 1021 30.15 850 25.1 6.8 44.3 62 0 32
23:20 1021 30.15 850 25.1 6.8 44.3 61 -0 31.9
23:25 1021 30.15 850 25.1 6.9 44.4 61 0 32
23:30 1021 30.15 850 25.1 6.7 44 63 0.2 32.4
23:35 1021 30.15 850 25.1 6.2 43.1 65 0.1 32.3
23:40 1021 30.15 850 25.1 5.7 42.3 67 0.1 32.2
23:45 1021 30.15 850 25.1 5.3 41.5 69 0.1 32.1
23:50 1021 30.15 850 25.1 5.1 41.2 69 -0.1 31.8
23:55 1021 30.15 850 25.1 5.3 41.5 68 -0.2 31.6
24:00 1021 30.15 850 25.1 5.3 41.5 68 -0.2 31.7